Time;durP1;ratioP1;P1;durP2;ratioP2;P2;SDS_P1;SDS_P2;PMS_P1;PMS_P2;Temp;Humidity;BMP_temperature;BMP_pressure;BME280_temperature;BME280_humidity;BME280_pressure;Samples;Min_cycle;Max_cycle;Signal;HPM_P1;HPM_P2
2022/08/12 00:47:09;;;;;;;1.90;0.68;;;;;;;18.82;57.93;98788.16;15271261;19;20018;-69
2022/08/12 00:52:29;;;;;;;1.60;0.50;;;;;;;18.75;58.90;98796.34;15023326;19;5000963;-69
2022/08/12 00:57:38;;;;;;;2.17;0.60;;;;;;;18.70;59.91;98799.69;15276005;19;20539;-69
2022/08/12 01:02:47;;;;;;;1.17;0.60;;;;;;;18.62;61.17;98803.44;15273552;19;20018;-69
2022/08/12 01:13:16;;;;;;;0.75;0.50;;;;;;;18.56;62.42;98800.66;15270847;19;20038;-68
2022/08/12 01:18:26;;;;;;;3.33;0.60;;;;;;;18.51;63.43;98800.47;15276124;19;20010;-68
2022/08/12 01:23:47;;;;;;;2.80;0.50;;;;;;;18.47;63.29;98806.31;15274163;19;20357;-68
2022/08/12 01:28:58;;;;;;;1.25;0.60;;;;;;;18.43;63.40;98798.75;15274668;19;20043;-68
2022/08/12 01:34:07;;;;;;;0.52;0.43;;;;;;;18.39;63.55;98797.44;15277161;19;20356;-68
2022/08/12 01:39:33;;;;;;;1.73;0.77;;;;;;;18.33;64.60;98794.50;15291228;19;20039;-68
2022/08/12 01:44:41;;;;;;;2.60;0.60;;;;;;;18.28;66.31;98790.69;15287485;19;20368;-68
2022/08/12 01:50:04;;;;;;;1.70;0.70;;;;;;;18.24;66.27;98786.69;15281600;19;20010;-68
2022/08/12 01:55:11;;;;;;;1.52;0.70;;;;;;;18.18;66.14;98780.97;15281246;19;20027;-68
2022/08/12 02:00:21;;;;;;;0.50;0.47;;;;;;;18.14;67.11;98784.31;15290089;19;20039;-68
2022/08/12 02:11:21;;;;;;;1.00;0.60;;;;;;;18.05;67.64;98777.34;15287626;19;20015;-68
2022/08/12 02:16:51;;;;;;;0.82;0.60;;;;;;;17.95;70.34;98770.34;15284249;19;20014;-69
2022/08/12 02:22:13;;;;;;;0.95;0.60;;;;;;;17.84;72.27;98768.19;15283046;19;20023;-68
2022/08/12 02:27:21;;;;;;;0.65;0.50;;;;;;;17.71;74.10;98775.22;15278699;19;20370;-68
2022/08/12 02:32:29;;;;;;;3.17;0.70;;;;;;;17.60;75.23;98770.34;15288150;19;20028;-68
2022/08/12 02:37:37;;;;;;;1.10;0.57;;;;;;;17.49;77.11;98766.25;15287130;19;20392;-68
2022/08/12 02:42:52;;;;;;;3.17;0.77;;;;;;;17.35;80.08;98768.03;15283523;19;20463;-68
2022/08/12 02:48:07;;;;;;;4.60;0.70;;;;;;;17.22;81.45;98760.63;15282267;19;20751;-68
2022/08/12 02:53:13;;;;;;;0.63;0.60;;;;;;;17.09;81.54;98758.59;15276860;19;20022;-73
2022/08/12 02:58:20;;;;;;;1.92;0.60;;;;;;;17.00;82.38;98767.09;15279042;19;20014;-68
2022/08/12 03:03:40;;;;;;;1.45;0.60;;;;;;;16.85;86.40;98759.81;15283093;19;20011;-68
2022/08/12 03:08:48;;;;;;;0.60;0.60;;;;;;;16.72;87.30;98757.78;15282464;19;20055;-67
2022/08/12 03:14:01;;;;;;;3.60;0.73;;;;;;;16.62;88.96;98757.25;15285244;19;20381;-68
2022/08/12 03:19:10;;;;;;;1.70;0.70;;;;;;;16.49;91.34;98760.69;15284005;19;20018;-66
2022/08/12 03:24:18;;;;;;;2.60;0.70;;;;;;;16.36;93.29;98766.78;15277032;19;20018;-67
2022/08/12 03:29:29;;;;;;;3.33;0.70;;;;;;;16.22;95.28;98759.50;15276227;19;20006;-68
2022/08/12 03:34:38;;;;;;;2.63;0.68;;;;;;;16.11;96.69;98758.09;15283782;19;20023;-67
2022/08/12 03:39:45;;;;;;;1.13;0.80;;;;;;;16.00;98.79;98754.84;15283088;19;20613;-67
2022/08/12 04:01:06;;;;;;;2.20;0.75;;;;;;;15.64;100.00;98762.88;15274845;19;20011;-68
2022/08/12 04:06:15;;;;;;;3.05;0.73;;;;;;;15.57;100.00;98763.59;15278090;19;20038;-68
2022/08/12 04:16:58;;;;;;;2.08;0.73;;;;;;;15.46;100.00;98782.22;15281597;19;20010;-68
2022/08/12 04:22:06;;;;;;;1.65;0.60;;;;;;;15.38;100.00;98775.81;15280100;19;20025;-66
2022/08/12 04:27:13;;;;;;;3.70;0.90;;;;;;;15.30;100.00;98775.91;15273643;19;20034;-67
2022/08/12 04:32:18;;;;;;;2.17;0.90;;;;;;;15.25;100.00;98786.44;15276979;19;20018;-66
2022/08/12 04:37:25;;;;;;;2.80;0.80;;;;;;;15.19;100.00;98777.16;15280395;19;20046;-67
2022/08/12 04:42:31;;;;;;;2.42;0.80;;;;;;;15.06;100.00;98780.50;15279863;19;20011;-67
2022/08/12 04:47:36;;;;;;;1.25;0.75;;;;;;;14.89;100.00;98787.91;15275988;19;20452;-66
2022/08/12 04:52:45;;;;;;;1.38;0.90;;;;;;;14.75;100.00;98776.00;15275842;19;20018;-66
2022/08/12 04:57:52;;;;;;;3.92;0.90;;;;;;;14.54;100.00;98784.72;15274520;19;20038;-66
2022/08/12 05:02:57;;;;;;;4.63;1.00;;;;;;;14.51;100.00;98790.50;15271695;19;20357;-66
2022/08/12 05:08:06;;;;;;;2.08;0.80;;;;;;;14.48;100.00;98791.69;15270362;19;20543;-66
2022/08/12 05:13:14;;;;;;;2.63;1.00;;;;;;;14.49;100.00;98797.94;15272359;19;20014;-66
2022/08/12 05:18:19;;;;;;;2.17;0.80;;;;;;;14.55;100.00;98805.38;15277216;19;20011;-66
2022/08/12 05:23:30;;;;;;;4.78;1.20;;;;;;;14.61;100.00;98798.41;15274670;19;20022;-63
2022/08/12 05:28:36;;;;;;;2.90;1.10;;;;;;;14.70;100.00;98797.38;15276323;19;20041;-65
2022/08/12 05:33:44;;;;;;;1.38;1.00;;;;;;;14.80;100.00;98810.72;15268986;19;20022;-70
2022/08/12 05:38:58;;;;;;;2.25;1.10;;;;;;;14.93;100.00;98820.97;15272508;19;20034;-69
2022/08/12 05:44:05;;;;;;;3.60;0.80;;;;;;;15.07;100.00;98806.63;15273069;19;20019;-70
2022/08/12 05:49:10;;;;;;;2.30;0.80;;;;;;;15.23;100.00;98812.94;15274698;19;20365;-68
2022/08/12 05:54:19;;;;;;;1.13;0.80;;;;;;;15.38;100.00;98811.13;15272854;19;20015;-71
2022/08/12 05:59:45;;;;;;;2.28;1.00;;;;;;;15.58;100.00;98813.34;15272854;19;20085;-68
2022/08/12 06:04:52;;;;;;;4.78;0.90;;;;;;;15.74;100.00;98816.91;15267793;19;20018;-65
2022/08/12 06:10:00;;;;;;;593.08;19.48;;;;;;;15.91;100.00;98818.47;15264635;19;20057;-64
2022/08/12 06:15:07;;;;;;;53.33;2.72;;;;;;;16.07;100.00;98808.44;15266070;19;20019;-68
2022/08/12 06:20:15;;;;;;;167.52;5.70;;;;;;;16.22;100.00;98813.88;15271114;19;20035;-64
2022/08/12 06:25:36;;;;;;;110.67;3.67;;;;;;;16.41;100.00;98817.88;14769494;19;10000825;-68
2022/08/12 06:30:41;;;;;;;132.90;5.03;;;;;;;16.59;100.00;98821.06;15282289;19;20015;-70
2022/08/12 06:35:48;;;;;;;72.63;3.17;;;;;;;16.79;100.00;98825.88;15274888;19;20550;-67
2022/08/12 06:46:17;;;;;;;89.07;3.75;;;;;;;17.23;100.00;98827.63;15277314;19;20433;-69
2022/08/12 06:51:22;;;;;;;97.90;3.65;;;;;;;17.49;100.00;98819.91;15280417;19;20011;-63
2022/08/12 06:56:30;;;;;;;65.53;2.50;;;;;;;17.71;100.00;98815.25;15277540;19;20878;-62
2022/08/12 07:01:55;;;;;;;9.25;1.00;;;;;;;18.13;100.00;98812.63;15284163;19;20018;-64
2022/08/12 07:07:01;;;;;;;3.13;0.80;;;;;;;18.49;100.00;98819.75;15279843;19;21894;-59
2022/08/12 07:12:18;;;;;;;4.25;0.90;;;;;;;18.92;97.84;98810.44;15278861;19;20409;-65
2022/08/12 07:17:24;;;;;;;3.33;0.80;;;;;;;19.27;93.44;98813.06;15282564;19;20087;-63
2022/08/12 07:22:29;;;;;;;2.65;0.80;;;;;;;19.78;86.39;98821.69;15285411;19;20039;-63
2022/08/12 07:27:42;;;;;;;4.90;0.80;;;;;;;20.11;84.08;98815.38;15282113;19;20010;-60
2022/08/12 07:32:48;;;;;;;8.27;0.80;;;;;;;20.66;74.63;98805.91;15278326;19;20038;-67
2022/08/12 07:37:54;;;;;;;10.55;0.80;;;;;;;20.87;75.03;98802.91;15282494;19;20011;-61
2022/08/12 07:43:02;;;;;;;4.35;0.68;;;;;;;21.27;67.52;98784.53;15276993;19;20015;-64
2022/08/12 07:48:07;;;;;;;4.38;0.60;;;;;;;21.57;65.26;98797.59;15278397;19;20006;-64
2022/08/12 07:53:12;;;;;;;5.40;0.85;;;;;;;21.83;63.98;98797.34;15282044;19;20018;-65
2022/08/12 07:58:20;;;;;;;4.47;0.60;;;;;;;22.05;62.17;98785.94;15281617;19;20025;-63
2022/08/12 08:03:26;;;;;;;5.10;0.70;;;;;;;22.32;62.61;98785.66;15278826;19;20441;-64
2022/08/12 08:08:32;;;;;;;4.93;0.50;;;;;;;22.61;59.79;98781.31;15275590;19;20034;-63
2022/08/12 08:13:41;;;;;;;2.60;0.60;;;;;;;22.82;56.69;98792.03;15270874;19;20022;-63
2022/08/12 08:18:46;;;;;;;2.75;0.43;;;;;;;22.96;57.36;98788.03;15274075;19;20042;-63
2022/08/12 08:29:13;;;;;;;3.28;0.65;;;;;;;23.31;55.21;98789.22;15274992;19;20031;-63
2022/08/12 08:34:20;;;;;;;4.38;0.50;;;;;;;23.46;52.33;98795.13;15279465;19;20023;-63
2022/08/12 08:39:45;;;;;;;1.70;0.32;;;;;;;23.57;51.58;98798.97;15278558;19;20458;-65
2022/08/12 08:44:57;;;;;;;2.33;0.30;;;;;;;23.58;50.19;98797.88;15268055;19;20619;-63
2022/08/12 08:50:02;;;;;;;1.50;0.22;;;;;;;23.69;49.43;98799.84;15274186;19;20570;-66
2022/08/12 08:55:09;;;;;;;7.63;0.80;;;;;;;23.81;49.38;98796.25;15275524;19;20019;-64
2022/08/12 09:00:19;;;;;;;4.93;0.40;;;;;;;23.92;49.62;98798.16;15278732;19;20010;-67
2022/08/12 09:05:24;;;;;;;4.95;0.65;;;;;;;24.03;50.06;98791.00;15275093;19;20010;-66
2022/08/12 09:10:29;;;;;;;1.02;0.40;;;;;;;24.25;48.29;98793.97;15276158;19;20460;-64
2022/08/12 09:15:40;;;;;;;5.13;0.50;;;;;;;24.44;45.81;98802.06;15272959;19;20031;-64
2022/08/12 09:20:49;;;;;;;0.68;0.20;;;;;;;24.55;46.04;98803.97;15277028;19;20023;-62
2022/08/12 09:25:54;;;;;;;4.47;0.22;;;;;;;24.76;45.50;98785.09;15269881;19;20506;-62
2022/08/12 09:31:04;;;;;;;0.50;0.30;;;;;;;24.92;45.19;98789.84;15272978;19;20480;-62
2022/08/12 09:36:30;;;;;;;6.63;0.70;;;;;;;24.98;45.93;98789.94;15273311;19;20070;-63
2022/08/12 09:47:36;;;;;;;2.15;0.43;;;;;;;25.32;43.65;98777.03;15275881;19;20041;-66
2022/08/12 09:52:44;;;;;;;8.70;0.50;;;;;;;25.47;43.36;98757.19;15267111;19;20383;-71
2022/08/12 09:57:50;;;;;;;6.35;0.40;;;;;;;25.59;43.02;98759.88;15278292;19;20026;-65
2022/08/12 10:03:20;;;;;;;1.00;0.32;;;;;;;25.82;42.18;98758.81;15286279;19;20017;-64
2022/08/12 10:08:38;;;;;;;0.93;0.30;;;;;;;25.92;42.29;98757.31;15287808;19;20379;-71
2022/08/12 10:13:45;;;;;;;3.22;0.40;;;;;;;26.06;42.55;98747.56;15287492;19;20071;-68
2022/08/12 10:18:55;;;;;;;1.17;0.30;;;;;;;26.14;41.89;98741.66;15288643;19;20015;-68
2022/08/12 10:24:03;;;;;;;7.10;0.45;;;;;;;26.14;40.70;98732.53;15281182;19;20015;-62
2022/08/12 10:34:52;;;;;;;1.92;0.20;;;;;;;26.21;40.84;98735.09;15285962;19;20027;-66
2022/08/12 10:40:03;;;;;;;1.98;0.40;;;;;;;26.46;41.01;98723.53;15289182;19;20017;-62
2022/08/12 10:45:15;;;;;;;1.52;0.40;;;;;;;26.55;40.33;98715.59;15284012;19;20018;-64
2022/08/12 10:50:26;;;;;;;4.25;0.32;;;;;;;26.65;39.44;98715.72;15284231;19;20016;-64
2022/08/12 10:55:41;;;;;;;10.07;0.40;;;;;;;26.74;39.08;98700.34;15275536;19;20022;-62
2022/08/12 11:00:47;;;;;;;5.78;0.70;;;;;;;26.69;39.26;98710.53;15280244;19;20034;-63
2022/08/12 11:06:14;;;;;;;1.77;0.30;;;;;;;26.74;38.91;98705.03;15282208;19;20014;-61
2022/08/12 11:11:41;;;;;;;0.82;0.30;;;;;;;26.74;39.74;98707.78;15281708;19;20459;-67
2022/08/12 11:17:11;;;;;;;4.18;0.40;;;;;;;26.99;38.76;98695.34;15286276;19;20017;-67
2022/08/12 11:22:39;;;;;;;1.65;0.25;;;;;;;26.97;38.89;98687.31;15284317;19;20028;-65
2022/08/12 11:27:44;;;;;;;3.03;0.30;;;;;;;26.98;38.99;98685.38;15278978;19;20027;-65
2022/08/12 11:32:54;;;;;;;3.30;0.40;;;;;;;27.04;38.64;98687.94;15275632;19;20418;-65
2022/08/12 11:38:04;;;;;;;4.25;0.57;;;;;;;27.02;37.58;98684.59;15281752;19;20053;-65
2022/08/12 11:43:13;;;;;;;1.13;0.30;;;;;;;27.17;37.84;98677.53;15281837;19;20006;-64
2022/08/12 11:48:24;;;;;;;3.58;0.30;;;;;;;27.32;38.17;98674.03;15284262;19;20107;-63
2022/08/12 11:53:33;;;;;;;1.52;0.20;;;;;;;27.53;38.10;98672.28;15278061;19;20051;-63
2022/08/12 11:58:58;;;;;;;3.53;0.30;;;;;;;27.77;37.73;98674.63;15274585;19;20018;-65
2022/08/12 12:04:23;;;;;;;4.00;0.40;;;;;;;27.86;37.94;98661.94;15275456;19;20049;-65
2022/08/12 12:09:35;;;;;;;3.15;0.22;;;;;;;27.89;37.48;98663.34;15280218;19;20022;-65
2022/08/12 12:14:57;;;;;;;3.35;0.35;;;;;;;28.10;37.67;98665.16;15279495;19;20040;-62
2022/08/12 12:20:13;;;;;;;1.48;0.30;;;;;;;28.08;37.58;98660.94;15278634;19;20813;-64
2022/08/12 12:25:21;;;;;;;2.10;0.32;;;;;;;28.13;37.43;98652.69;15278052;19;20089;-64
2022/08/12 12:30:46;;;;;;;0.63;0.30;;;;;;;28.40;37.36;98646.13;15272396;19;20486;-64
2022/08/12 12:35:58;;;;;;;2.55;0.28;;;;;;;28.55;36.49;98654.44;15272242;19;20013;-63
2022/08/12 12:41:26;;;;;;;1.55;0.40;;;;;;;28.88;36.60;98638.44;15278682;19;20035;-64
2022/08/12 12:46:51;;;;;;;0.57;0.20;;;;;;;28.99;36.66;98630.13;15275868;19;20023;-65
2022/08/12 12:51:58;;;;;;;4.05;0.32;;;;;;;29.13;36.73;98635.94;15276060;19;20014;-62
2022/08/12 12:57:26;;;;;;;1.60;0.40;;;;;;;29.29;35.70;98614.56;15278536;19;20014;-64
2022/08/12 13:02:54;;;;;;;2.15;0.30;;;;;;;29.43;35.99;98637.88;15272086;19;20081;-64
2022/08/12 13:08:02;;;;;;;0.65;0.28;;;;;;;29.70;35.81;98617.25;15275077;19;20038;-64
2022/08/12 13:13:10;;;;;;;2.15;0.40;;;;;;;30.04;34.30;98616.63;15274594;19;20352;-62
2022/08/12 13:18:37;;;;;;;4.38;0.20;;;;;;;30.48;34.82;98620.50;15275320;19;20010;-65
2022/08/12 13:23:45;;;;;;;0.93;0.30;;;;;;;30.63;33.55;98625.19;15275544;19;20006;-62
2022/08/12 13:28:55;;;;;;;2.83;0.32;;;;;;;30.73;34.54;98625.09;15274333;19;20023;-63
2022/08/12 13:34:03;;;;;;;2.53;0.32;;;;;;;30.60;34.24;98631.31;15253625;19;20510;-63
2022/08/12 13:39:28;;;;;;;2.85;0.30;;;;;;;29.67;34.63;98626.97;15285260;19;20010;-64
2022/08/12 13:44:36;;;;;;;2.75;0.30;;;;;;;29.79;34.33;98634.16;15282680;19;20018;-63
2022/08/12 13:49:42;;;;;;;2.65;0.20;;;;;;;30.20;33.42;98628.47;15286539;19;20006;-63
2022/08/12 13:55:02;;;;;;;2.88;0.30;;;;;;;30.36;33.11;98632.00;15284428;19;20509;-64
2022/08/12 14:00:14;;;;;;;1.02;0.20;;;;;;;30.54;33.51;98622.19;15285428;19;20039;-64
2022/08/12 14:05:21;;;;;;;1.23;0.22;;;;;;;30.38;34.08;98618.66;15281994;19;20409;-64
2022/08/12 14:10:45;;;;;;;2.53;0.30;;;;;;;30.12;33.37;98604.88;15283304;19;20475;-65
2022/08/12 14:15:59;;;;;;;2.70;0.32;;;;;;;29.94;33.91;98608.31;15277171;19;20018;-65
2022/08/12 14:21:11;;;;;;;4.30;0.30;;;;;;;30.29;33.71;98603.66;15284508;19;20348;-64
2022/08/12 14:26:26;;;;;;;2.28;0.40;;;;;;;30.80;33.43;98601.69;15279777;19;20433;-64
2022/08/12 14:31:36;;;;;;;5.60;0.30;;;;;;;30.86;33.62;98590.22;15276341;19;20530;-63
2022/08/12 14:36:46;;;;;;;0.90;0.22;;;;;;;31.09;32.98;98598.09;15277069;19;20371;-63
2022/08/12 14:41:51;;;;;;;2.08;0.35;;;;;;;30.96;33.76;98599.59;15273521;19;20014;-64
2022/08/12 14:47:03;;;;;;;3.65;0.40;;;;;;;30.97;33.79;98590.97;15279258;19;20490;-64
2022/08/12 14:52:12;;;;;;;2.80;0.30;;;;;;;31.12;33.34;98591.97;15275078;19;20100;-63
2022/08/12 14:57:54;;;;;;;2.33;0.30;;;;;;;31.27;32.57;98599.34;15280333;19;20024;-62
2022/08/12 15:03:03;;;;;;;2.13;0.40;;;;;;;31.63;32.98;98588.63;15279816;19;20431;-63
2022/08/12 15:08:13;;;;;;;3.33;0.30;;;;;;;31.42;32.50;98599.16;15281861;19;20018;-63
2022/08/12 15:13:26;;;;;;;2.88;0.50;;;;;;;31.10;33.28;98591.41;15269814;19;20030;-63
2022/08/12 15:18:35;;;;;;;4.45;0.40;;;;;;;30.83;33.69;98578.84;15273987;19;20364;-63
2022/08/12 15:23:40;;;;;;;0.90;0.32;;;;;;;31.19;33.28;98590.50;15278387;19;20018;-64
2022/08/12 15:28:59;;;;;;;2.35;0.30;;;;;;;31.60;33.31;98586.44;15279068;19;20043;-64
2022/08/12 15:34:07;;;;;;;3.33;0.30;;;;;;;31.77;32.46;98590.72;15274369;19;20381;-68
2022/08/12 15:39:14;;;;;;;0.73;0.30;;;;;;;31.71;32.82;98586.34;15278063;19;20344;-65
2022/08/12 15:44:22;;;;;;;3.53;0.30;;;;;;;31.77;31.87;98585.16;15270035;19;20018;-65
2022/08/12 15:49:48;;;;;;;0.63;0.17;;;;;;;32.10;31.00;98572.19;15275815;19;20320;-65
2022/08/12 15:55:07;;;;;;;2.90;0.35;;;;;;;32.19;31.31;98575.13;15273295;19;20017;-63
2022/08/12 16:00:16;;;;;;;3.83;0.60;;;;;;;32.11;31.67;98575.78;15275573;19;20011;-65
2022/08/12 16:05:41;;;;;;;5.32;0.50;;;;;;;31.40;32.73;98573.56;15273740;19;20693;-65
2022/08/12 16:11:08;;;;;;;0.98;0.30;;;;;;;31.07;32.74;98567.75;15274090;19;20767;-67
2022/08/12 16:16:19;;;;;;;2.53;0.28;;;;;;;31.17;32.94;98566.88;15266173;19;20014;-64
2022/08/12 16:21:31;;;;;;;1.03;0.33;;;;;;;31.41;32.90;98572.44;15275340;19;20042;-64
2022/08/12 16:26:56;;;;;;;4.72;0.30;;;;;;;31.79;32.60;98569.00;15277848;19;20022;-66
2022/08/12 16:32:03;;;;;;;4.50;0.40;;;;;;;31.80;32.66;98556.72;15275531;19;20512;-64
2022/08/12 16:37:14;;;;;;;1.83;0.30;;;;;;;31.69;32.32;98552.41;15276612;19;20010;-64
2022/08/12 16:42:21;;;;;;;0.82;0.30;;;;;;;31.34;32.48;98544.16;15271789;19;20115;-64
2022/08/12 16:47:32;;;;;;;3.22;0.35;;;;;;;30.98;32.35;98547.28;15266709;19;20046;-66
2022/08/12 16:53:00;;;;;;;3.05;0.30;;;;;;;30.72;32.56;98553.91;15272329;19;20010;-67
2022/08/12 16:58:13;;;;;;;0.47;0.20;;;;;;;30.66;32.46;98546.72;15269677;19;20018;-66
2022/08/12 17:03:36;;;;;;;3.03;0.40;;;;;;;30.61;32.90;98549.56;15269933;19;20026;-66
2022/08/12 17:08:43;;;;;;;3.65;0.30;;;;;;;30.87;32.21;98541.81;15274251;19;20014;-65
2022/08/12 17:14:00;;;;;;;1.40;0.30;;;;;;;30.55;33.90;98546.00;15270220;19;20031;-65
2022/08/12 17:19:07;;;;;;;0.63;0.25;;;;;;;30.21;34.59;98552.34;15267566;19;20021;-67
2022/08/12 17:24:18;;;;;;;1.77;0.50;;;;;;;30.00;34.47;98551.63;15260086;19;20038;-60
2022/08/12 17:29:36;;;;;;;3.58;0.50;;;;;;;29.64;34.96;98538.69;15266134;19;20090;-59
2022/08/12 17:40:25;;;;;;;2.23;0.30;;;;;;;29.55;35.55;98534.03;15273208;19;20140;-58
2022/08/12 17:45:41;;;;;;;3.10;0.30;;;;;;;29.27;35.62;98533.53;15265972;19;20034;-61
2022/08/12 17:50:52;;;;;;;2.28;0.40;;;;;;;29.12;36.12;98537.19;15259589;19;20446;-63
2022/08/12 17:56:01;;;;;;;0.75;0.30;;;;;;;28.93;36.98;98545.25;15263822;19;20015;-59
2022/08/12 18:01:08;;;;;;;0.50;0.33;;;;;;;28.49;36.97;98541.94;15263671;19;20014;-61
2022/08/12 18:06:15;;;;;;;1.90;0.40;;;;;;;28.02;37.66;98545.72;15266336;19;20025;-58
2022/08/12 18:17:01;;;;;;;3.20;0.40;;;;;;;27.29;38.84;98547.31;15265954;19;20482;-58
2022/08/12 18:22:06;;;;;;;1.88;0.47;;;;;;;26.94;39.48;98546.84;15281154;19;20010;-58
2022/08/12 18:27:15;;;;;;;2.83;0.30;;;;;;;26.69;39.89;98551.06;15272724;19;20069;-55
2022/08/12 18:32:40;;;;;;;2.92;0.47;;;;;;;26.38;40.59;98544.44;15272032;19;20508;-58
2022/08/12 18:38:04;;;;;;;1.73;0.40;;;;;;;26.19;40.47;98560.53;15281220;19;20451;-60
2022/08/12 18:43:15;;;;;;;3.65;0.60;;;;;;;25.93;41.41;98566.59;15276774;19;20019;-62
2022/08/12 18:48:22;;;;;;;5.85;0.50;;;;;;;25.71;41.54;98566.59;15279891;19;20014;-61
2022/08/12 18:53:27;;;;;;;1.55;0.40;;;;;;;25.52;42.28;98558.66;15275990;19;20406;-60
2022/08/12 18:58:55;;;;;;;1.35;0.40;;;;;;;25.28;42.79;98562.72;15273378;19;20018;-59
2022/08/12 19:04:05;;;;;;;4.50;0.47;;;;;;;25.08;43.08;98564.09;15246849;19;20449;-59
2022/08/12 19:09:13;;;;;;;1.02;0.43;;;;;;;24.89;43.94;98561.59;15279422;19;20043;-58
2022/08/12 19:14:28;;;;;;;1.73;0.40;;;;;;;24.72;44.08;98563.53;15276745;19;20430;-58
2022/08/12 19:19:35;;;;;;;4.85;0.45;;;;;;;24.54;44.54;98565.41;15278610;19;20017;-58
2022/08/12 19:30:07;;;;;;;2.08;0.40;;;;;;;24.26;44.52;98583.66;15267601;19;20740;-55
2022/08/12 19:35:12;;;;;;;6.15;0.50;;;;;;;24.05;45.25;98578.84;15271106;19;20499;-58
2022/08/12 19:40:39;;;;;;;1.88;0.50;;;;;;;23.91;45.56;98575.50;15273713;19;20044;-54
2022/08/12 19:45:53;;;;;;;1.42;0.40;;;;;;;23.77;46.21;98569.47;15275745;19;20015;-58
2022/08/12 19:51:00;;;;;;;1.75;0.50;;;;;;;23.62;46.89;98568.06;15270371;19;20035;-57
2022/08/12 19:56:27;;;;;;;3.40;0.50;;;;;;;23.41;46.90;98572.28;15274395;19;20027;-57
2022/08/12 20:01:38;;;;;;;5.13;0.57;;;;;;;23.25;47.72;98579.34;15264532;19;20026;-56
2022/08/12 20:07:03;;;;;;;1.93;0.40;;;;;;;23.09;48.04;98579.00;15271147;19;20061;-56
2022/08/12 20:12:10;;;;;;;0.98;0.32;;;;;;;22.98;49.04;98574.34;15269355;19;20058;-56
2022/08/12 20:17:27;;;;;;;2.22;0.50;;;;;;;22.87;49.61;98575.19;15273822;19;20333;-55
2022/08/12 20:23:28;;;;;;;1.58;0.40;;;;;;;22.76;50.61;98574.09;15270854;19;20411;-60
2022/08/12 20:29:02;;;;;;;0.63;0.30;;;;;;;22.62;50.31;98579.78;15262806;19;20045;-56
2022/08/12 20:34:15;;;;;;;0.68;0.40;;;;;;;22.51;51.13;98579.78;15268258;19;20014;-55
2022/08/12 20:39:23;;;;;;;2.05;0.30;;;;;;;22.35;52.45;98571.13;15277412;19;20027;-53
2022/08/12 20:44:48;;;;;;;6.75;0.50;;;;;;;22.24;53.15;98574.66;15273367;19;20030;-52
2022/08/12 20:49:58;;;;;;;4.35;0.50;;;;;;;22.11;53.17;98578.44;15274495;19;20389;-53
2022/08/12 20:55:05;;;;;;;1.95;0.47;;;;;;;22.01;53.68;98570.75;15270732;19;20019;-57
2022/08/12 21:00:22;;;;;;;1.58;0.60;;;;;;;21.85;55.14;98578.56;15275095;19;20011;-58
2022/08/12 21:11:11;;;;;;;3.58;0.50;;;;;;;21.64;56.46;98573.56;15273547;19;20014;-58
2022/08/12 21:16:16;;;;;;;2.65;0.43;;;;;;;21.56;58.06;98574.66;15271464;19;20011;-56
2022/08/12 21:21:43;;;;;;;6.63;0.80;;;;;;;21.46;58.48;98588.91;15274688;19;20070;-55
2022/08/12 21:26:58;;;;;;;1.38;0.60;;;;;;;21.29;60.27;98585.94;15274970;19;20014;-55
2022/08/12 21:32:07;;;;;;;1.77;0.60;;;;;;;21.18;60.77;98582.06;15273324;19;20042;-54
2022/08/12 21:37:40;;;;;;;2.20;0.60;;;;;;;21.05;62.02;98580.28;15267727;19;20461;-57
2022/08/12 21:42:46;;;;;;;1.60;0.70;;;;;;;20.97;63.04;98585.22;15273373;19;20030;-52
2022/08/12 21:47:51;;;;;;;2.45;0.35;;;;;;;20.91;65.94;98579.56;15274229;19;20070;-54
2022/08/12 21:52:59;;;;;;;4.57;0.50;;;;;;;20.84;66.67;98576.06;15278316;19;20364;-54
2022/08/12 21:58:19;;;;;;;1.92;0.60;;;;;;;20.72;66.71;98580.56;15289491;19;20019;-56
2022/08/12 22:09:09;;;;;;;2.42;0.70;;;;;;;20.33;73.91;98573.25;15275329;19;20078;-59
2022/08/12 22:14:23;;;;;;;1.45;0.57;;;;;;;20.25;73.28;98578.16;15280289;19;20476;-56
2022/08/12 22:19:28;;;;;;;2.50;0.60;;;;;;;20.21;74.50;98576.94;15289962;19;20018;-52
2022/08/12 22:24:42;;;;;;;2.60;0.68;;;;;;;20.11;76.27;98574.69;15282917;19;20006;-56
2022/08/12 22:40:34;;;;;;;4.18;0.60;;;;;;;19.60;82.07;98585.41;15285308;19;20014;-55
2022/08/12 22:51:02;;;;;;;2.88;0.60;;;;;;;19.29;86.43;98578.78;15284112;19;20046;-55
2022/08/12 22:56:13;;;;;;;1.40;0.60;;;;;;;19.24;87.21;98575.84;15281669;19;20038;-54
2022/08/12 23:01:18;;;;;;;2.55;0.60;;;;;;;19.14;89.23;98573.56;15283730;19;20022;-55
2022/08/12 23:06:47;;;;;;;3.20;0.60;;;;;;;19.06;89.68;98569.16;15285402;19;20049;-55
2022/08/12 23:12:00;;;;;;;2.63;0.60;;;;;;;19.01;91.15;98574.41;15282565;19;20503;-57
2022/08/12 23:17:07;;;;;;;3.00;0.60;;;;;;;18.94;92.50;98562.69;15279746;19;20018;-58
2022/08/12 23:22:32;;;;;;;2.33;0.50;;;;;;;18.87;94.40;98567.28;15277083;19;20049;-66
2022/08/12 23:33:04;;;;;;;2.10;0.47;;;;;;;18.72;96.53;98560.16;15281577;19;20025;-65
2022/08/12 23:38:24;;;;;;;;;;;;;;;18.62;100.00;98560.56;15281043;19;20035;-63
2022/08/12 23:43:38;;;;;;;1.50;0.57;;;;;;;18.58;97.72;98553.84;15275574;19;19910;-65
2022/08/12 23:48:55;;;;;;;5.25;0.70;;;;;;;18.52;100.00;98553.88;15276353;19;20035;-63
2022/08/12 23:54:05;;;;;;;1.45;0.60;;;;;;;18.44;100.00;98558.47;15276527;19;20043;-61
2022/08/12 23:59:13;;;;;;;2.40;0.63;;;;;;;18.36;100.00;98555.94;15280005;19;20018;-63
